Dayton, Tennessee
Current Conditions -  °F | °C
As of 2:15 PM on Friday 24 Oct 2014 (Local Time) from KRZR Reporting Station
Clear Clear  
Wind Chill: 19°   Ceiling: Unl
Heat Index: 19°   Visibility: 10mi
Dew Point:   Wind: 8mph
Humidity: 43%   Direction: 40°NE
Pressure: 30.07"   Gusts: NA
Location:  35.49°N, 85.01°W
Report Text: KRZR 241815Z AUTO 04007KT 10SM CLR 19/06 A3007 RMK
Loading
Personal Weather Stations






























Interactive Weather Map
Tropical Storm Tracking
New forecast layout! Learn more

10-Day Weather Forecast

Advertisements
Track Severe Weather on mobile